createdAt,value
2023-01-26T00:02:18.003Z,25.17
2023-01-26T00:04:46.036Z,25.53
2023-01-26T00:07:15.600Z,24.03
2023-01-26T00:09:43.676Z,22.67
2023-01-26T00:12:11.793Z,22.70
2023-01-26T00:14:51.837Z,23.60
2023-01-26T00:17:26.994Z,23.40
2023-01-26T00:19:59.295Z,22.50
2023-01-26T00:22:29.068Z,24.83
2023-01-26T00:24:57.258Z,24.73
2023-01-26T00:27:25.352Z,23.07
2023-01-26T00:29:53.567Z,23.97
2023-01-26T00:32:22.633Z,23.57
2023-01-26T00:34:50.813Z,22.60
2023-01-26T00:37:18.948Z,23.83
2023-01-26T00:39:48.495Z,22.27
2023-01-26T00:42:16.591Z,22.70
2023-01-26T00:44:44.919Z,22.13
2023-01-26T00:47:15.849Z,23.07
2023-01-26T00:49:44.189Z,23.60
2023-01-26T00:52:13.318Z,23.80
2023-01-26T00:54:41.488Z,24.10
2023-01-26T00:57:11.187Z,25.30
2023-01-26T00:59:39.307Z,25.13
2023-01-26T01:02:07.599Z,25.40
2023-01-26T01:04:35.886Z,25.17
2023-01-26T01:07:03.983Z,26.57
2023-01-26T01:09:33.760Z,26.33
2023-01-26T01:12:01.901Z,25.73
2023-01-26T01:14:31.502Z,25.87
2023-01-26T01:17:00.116Z,26.33
2023-01-26T01:19:28.670Z,27.73
2023-01-26T01:21:56.758Z,28.07
2023-01-26T01:24:25.302Z,26.87
2023-01-26T01:26:53.381Z,28.43
2023-01-26T01:29:22.233Z,27.53
2023-01-26T01:31:51.791Z,24.93
2023-01-26T01:34:20.013Z,25.63
2023-01-26T01:36:48.099Z,26.50
2023-01-26T01:41:43.385Z,26.67
2023-01-26T01:44:17.789Z,25.67
2023-01-26T01:46:52.731Z,25.97
2023-01-26T01:49:24.816Z,25.90
2023-01-26T01:51:57.491Z,26.50
2023-01-26T01:54:31.600Z,27.23
2023-01-26T01:57:04.503Z,27.07
2023-01-26T01:59:33.979Z,28.40
2023-01-26T02:02:04.097Z,27.83
2023-01-26T02:04:32.320Z,28.53
2023-01-26T02:07:04.346Z,26.60
2023-01-26T02:09:54.078Z,29.23
2023-01-26T02:12:31.480Z,29.67
2023-01-26T02:14:59.760Z,29.67
2023-01-26T02:17:29.301Z,29.57
2023-01-26T02:20:08.542Z,27.67
2023-01-26T02:22:47.392Z,26.10
2023-01-26T02:25:25.874Z,25.80
2023-01-26T02:27:55.514Z,27.23
2023-01-26T02:30:24.548Z,27.80
2023-01-26T02:32:52.797Z,26.10
2023-01-26T02:35:21.266Z,26.73
2023-01-26T02:37:49.428Z,27.77
2023-01-26T02:40:26.045Z,28.63
2023-01-26T02:42:55.319Z,28.57
2023-01-26T02:45:24.999Z,30.00
2023-01-26T02:47:53.473Z,30.33
2023-01-26T02:50:20.657Z,29.53
2023-01-26T02:52:48.734Z,28.53
2023-01-26T02:55:29.706Z,27.70
2023-01-26T02:58:01.939Z,27.67
2023-01-26T03:00:35.014Z,29.30
2023-01-26T03:03:03.991Z,30.60
2023-01-26T03:05:32.343Z,28.87
2023-01-26T03:08:01.212Z,28.63
2023-01-26T03:10:36.516Z,29.30
2023-01-26T03:13:06.227Z,29.37
2023-01-26T03:15:43.910Z,28.70
2023-01-26T03:18:32.912Z,27.37
2023-01-26T03:21:19.291Z,26.73
2023-01-26T03:24:05.443Z,26.00
2023-01-26T03:26:52.674Z,29.00
2023-01-26T03:29:23.097Z,28.20
2023-01-26T03:31:52.773Z,27.87
2023-01-26T03:34:21.614Z,28.60
2023-01-26T03:36:50.465Z,28.93
2023-01-26T03:39:37.838Z,28.23
2023-01-26T03:42:25.328Z,28.30
2023-01-26T03:45:12.456Z,28.27
2023-01-26T03:48:00.946Z,29.03
2023-01-26T03:50:48.801Z,28.10
2023-01-26T03:53:37.303Z,28.53
2023-01-26T03:56:22.292Z,29.23
2023-01-26T03:58:54.965Z,29.80
2023-01-26T04:01:28.170Z,31.97
2023-01-26T04:04:16.810Z,31.77
2023-01-26T04:07:05.947Z,32.17
2023-01-26T04:09:36.732Z,32.67
2023-01-26T04:12:05.670Z,32.77
2023-01-26T04:14:55.988Z,30.13
2023-01-26T04:17:44.956Z,28.83
2023-01-26T04:20:32.616Z,26.83
2023-01-26T04:23:00.874Z,27.00
2023-01-26T04:25:29.661Z,28.53
2023-01-26T04:27:58.958Z,29.90
2023-01-26T04:30:27.216Z,29.37
2023-01-26T04:32:56.853Z,29.47
2023-01-26T04:35:25.093Z,30.17
2023-01-26T04:37:53.756Z,30.83
2023-01-26T04:40:21.989Z,32.13
2023-01-26T04:42:51.031Z,30.83
2023-01-26T04:45:19.342Z,31.97
2023-01-26T04:47:48.290Z,30.57
2023-01-26T04:50:19.541Z,24.50
2023-01-26T04:52:48.931Z,26.03
2023-01-26T04:55:17.794Z,25.00
2023-01-26T04:57:46.137Z,26.00
2023-01-26T05:00:15.037Z,26.67
2023-01-26T05:02:43.710Z,26.47
2023-01-26T05:05:12.523Z,27.17
2023-01-26T05:07:42.558Z,29.97
2023-01-26T05:10:15.518Z,30.20
2023-01-26T05:12:53.806Z,30.03
2023-01-26T05:15:28.116Z,31.80
2023-01-26T05:18:15.943Z,32.97
2023-01-26T05:21:02.833Z,31.73
2023-01-26T05:23:40.861Z,31.17
2023-01-26T05:26:09.433Z,31.37
2023-01-26T05:29:00.609Z,29.77
2023-01-26T05:31:28.944Z,29.57
2023-01-26T05:33:57.172Z,30.87
2023-01-26T05:36:25.935Z,29.63
2023-01-26T05:38:56.085Z,29.17
2023-01-26T05:41:26.952Z,28.07
2023-01-26T05:44:30.538Z,28.57
2023-01-26T05:47:05.353Z,30.63
2023-01-26T05:49:33.729Z,29.20
2023-01-26T05:52:02.111Z,29.23
2023-01-26T05:54:32.556Z,28.27
2023-01-26T05:57:01.257Z,28.10
2023-01-26T05:59:29.888Z,28.30
2023-01-26T06:01:58.184Z,30.03
2023-01-26T06:04:27.548Z,29.10
2023-01-26T06:07:00.587Z,28.83
2023-01-26T06:09:34.489Z,28.27
2023-01-26T06:12:02.652Z,27.90
2023-01-26T06:14:49.214Z,27.90
2023-01-26T06:17:19.571Z,29.60
2023-01-26T06:19:50.215Z,29.27
2023-01-26T06:22:18.463Z,29.13
2023-01-26T06:24:51.702Z,29.47
2023-01-26T06:27:20.360Z,28.97
2023-01-26T06:29:50.858Z,27.00
2023-01-26T06:32:19.227Z,26.03
2023-01-26T06:34:53.419Z,24.37
2023-01-26T06:37:22.287Z,25.60
2023-01-26T06:39:53.572Z,26.10
2023-01-26T06:42:21.766Z,26.20
2023-01-26T06:44:49.861Z,25.13
2023-01-26T06:47:18.414Z,25.83
2023-01-26T06:49:46.634Z,25.50
2023-01-26T06:52:32.274Z,25.87
2023-01-26T06:55:06.742Z,27.90
2023-01-26T06:57:47.084Z,27.07
2023-01-26T07:00:54.087Z,28.23
2023-01-26T07:03:30.791Z,30.53
2023-01-26T07:05:59.158Z,28.37
2023-01-26T07:08:27.763Z,27.13
2023-01-26T07:10:57.393Z,26.10
2023-01-26T07:13:25.492Z,27.13
2023-01-26T07:15:53.728Z,29.60
2023-01-26T07:18:21.974Z,29.87
2023-01-26T07:20:50.272Z,29.13
2023-01-26T07:23:18.594Z,30.27
2023-01-26T07:25:46.742Z,29.97
2023-01-26T07:28:16.246Z,29.97
2023-01-26T07:30:44.454Z,29.17
2023-01-26T07:33:12.691Z,30.10
2023-01-26T07:35:40.835Z,30.90
2023-01-26T07:38:09.120Z,29.83
2023-01-26T07:40:37.422Z,29.80
2023-01-26T07:43:05.532Z,28.63
2023-01-26T07:45:53.277Z,28.53
2023-01-26T07:48:23.578Z,31.13
2023-01-26T07:50:52.297Z,29.77
2023-01-26T07:53:23.090Z,29.80
2023-01-26T07:55:51.439Z,32.00
2023-01-26T07:58:19.672Z,30.10
2023-01-26T08:00:48.176Z,29.70
2023-01-26T08:03:17.842Z,29.83
2023-01-26T08:05:47.338Z,31.73
2023-01-26T08:08:15.773Z,31.07
2023-01-26T08:10:44.050Z,31.13
2023-01-26T08:13:12.404Z,29.47
2023-01-26T08:15:40.521Z,30.40
2023-01-26T08:18:08.665Z,30.43
2023-01-26T08:20:38.173Z,29.17
2023-01-26T08:23:06.305Z,28.70
2023-01-26T08:25:34.475Z,29.77
2023-01-26T08:28:03.530Z,30.10
2023-01-26T08:30:31.737Z,30.20
2023-01-26T08:32:59.929Z,31.30
2023-01-26T08:35:32.283Z,30.07
2023-01-26T08:38:04.427Z,31.07
2023-01-26T08:40:32.593Z,30.17
2023-01-26T08:43:02.807Z,28.97
2023-01-26T08:45:35.210Z,29.27
2023-01-26T08:48:04.301Z,29.33
2023-01-26T08:50:32.355Z,28.87
2023-01-26T08:53:00.489Z,29.27
2023-01-26T08:55:30.236Z,29.10
2023-01-26T08:57:58.853Z,31.27
2023-01-26T09:00:27.029Z,28.77
2023-01-26T09:03:00.665Z,28.60
2023-01-26T09:05:29.343Z,28.53
2023-01-26T09:07:57.436Z,29.20
2023-01-26T09:10:25.661Z,28.73
2023-01-26T09:12:55.187Z,27.43
2023-01-26T09:15:23.451Z,26.97
2023-01-26T09:17:52.323Z,28.33
2023-01-26T09:20:21.865Z,28.17
2023-01-26T09:22:50.093Z,28.37
2023-01-26T09:25:18.456Z,27.63
2023-01-26T09:27:46.964Z,27.67
2023-01-26T09:30:17.655Z,27.47
2023-01-26T09:32:45.823Z,27.20
2023-01-26T09:35:15.139Z,28.30
2023-01-26T09:37:45.104Z,30.73
2023-01-26T09:40:19.296Z,29.80
2023-01-26T09:43:06.418Z,30.03
2023-01-26T09:45:42.565Z,29.67
2023-01-26T09:48:25.414Z,29.37
2023-01-26T09:51:02.830Z,28.93
2023-01-26T09:53:41.168Z,30.10
2023-01-26T09:56:19.053Z,29.27
2023-01-26T09:58:53.613Z,29.63
2023-01-26T10:01:29.127Z,28.93
2023-01-26T10:04:05.815Z,29.03
2023-01-26T10:06:34.943Z,29.53
2023-01-26T10:09:14.778Z,27.00
2023-01-26T10:11:46.100Z,26.33
2023-01-26T10:14:17.305Z,26.13
2023-01-26T10:16:50.169Z,26.77
2023-01-26T10:19:28.692Z,24.73
2023-01-26T10:22:00.553Z,26.33
2023-01-26T10:24:29.360Z,26.83
2023-01-26T10:26:59.442Z,26.23
2023-01-26T10:29:27.668Z,26.13
2023-01-26T10:31:57.160Z,27.87
2023-01-26T10:34:27.404Z,27.03
2023-01-26T10:37:03.285Z,27.17
2023-01-26T10:39:31.431Z,25.23
2023-01-26T10:42:01.303Z,23.40
2023-01-26T10:44:34.596Z,24.43
2023-01-26T10:47:15.883Z,24.47
2023-01-26T10:49:45.053Z,24.67
2023-01-26T10:52:18.626Z,24.60
2023-01-26T10:54:47.299Z,24.60
2023-01-26T10:57:19.686Z,23.83
2023-01-26T10:59:54.051Z,24.40
2023-01-26T11:02:28.046Z,22.70
2023-01-26T11:05:16.949Z,23.00
2023-01-26T11:07:47.008Z,24.70
2023-01-26T11:10:21.081Z,24.13
2023-01-26T11:12:49.768Z,23.37
2023-01-26T11:15:20.221Z,23.27
2023-01-26T11:18:00.852Z,22.57
2023-01-26T11:20:49.431Z,22.57
2023-01-26T11:23:28.019Z,22.93
2023-01-26T11:26:15.454Z,22.73
2023-01-26T11:28:55.561Z,22.70
2023-01-26T11:31:38.107Z,21.77
2023-01-26T11:34:24.770Z,21.97
2023-01-26T11:37:03.066Z,22.73
2023-01-26T11:39:41.005Z,22.57
2023-01-26T11:42:25.316Z,24.00
2023-01-26T11:45:16.604Z,24.10
2023-01-26T11:48:01.460Z,23.53
2023-01-26T11:50:36.512Z,23.23
2023-01-26T11:53:24.118Z,22.33
2023-01-26T11:56:08.098Z,22.10
2023-01-26T11:58:41.207Z,22.57
2023-01-26T12:01:17.019Z,22.20
2023-01-26T12:03:48.971Z,22.80
2023-01-26T12:06:20.517Z,23.03
2023-01-26T12:08:53.430Z,22.63
2023-01-26T12:11:27.496Z,23.37
2023-01-26T12:14:05.621Z,23.27
2023-01-26T12:16:45.984Z,23.63
2023-01-26T12:19:23.633Z,23.00
2023-01-26T12:22:04.278Z,21.43
2023-01-26T12:25:12.271Z,22.10
2023-01-26T12:27:40.071Z,22.27
2023-01-26T12:30:22.930Z,21.10
2023-01-26T12:32:51.415Z,22.73
2023-01-26T12:35:28.806Z,21.67
2023-01-26T12:38:16.877Z,23.37
2023-01-26T12:40:53.847Z,23.47
2023-01-26T12:43:38.997Z,23.37
2023-01-26T12:46:09.267Z,24.53
2023-01-26T12:48:43.327Z,24.47
2023-01-26T12:51:16.866Z,23.97
2023-01-26T12:53:57.381Z,23.83
2023-01-26T12:56:31.918Z,22.90
2023-01-26T12:59:05.226Z,22.17
2023-01-26T13:01:41.032Z,21.73
2023-01-26T13:04:12.655Z,23.13
2023-01-26T13:06:40.961Z,22.90
2023-01-26T13:09:25.296Z,21.87
2023-01-26T13:11:56.217Z,23.23
2023-01-26T13:14:27.454Z,20.87
2023-01-26T13:16:55.777Z,21.97
2023-01-26T13:19:38.424Z,22.17
2023-01-26T13:22:42.874Z,22.03
2023-01-26T13:25:18.781Z,22.10
2023-01-26T13:27:48.588Z,22.50
2023-01-26T13:30:39.882Z,20.70
2023-01-26T13:33:18.855Z,22.17
2023-01-26T13:35:47.910Z,23.63
2023-01-26T13:38:21.484Z,21.97
2023-01-26T13:40:51.097Z,22.20
2023-01-26T13:43:28.281Z,23.43
2023-01-26T13:46:05.039Z,22.60
2023-01-26T13:48:48.153Z,23.33
2023-01-26T13:51:21.916Z,23.10
2023-01-26T13:53:57.943Z,24.43
2023-01-26T13:56:29.171Z,25.00
2023-01-26T13:59:06.153Z,23.90
2023-01-26T14:01:34.987Z,23.83
2023-01-26T14:04:04.891Z,26.13
2023-01-26T14:06:33.862Z,24.17
2023-01-26T14:09:05.430Z,25.20
2023-01-26T14:11:35.032Z,23.83
2023-01-26T14:14:03.925Z,24.20
2023-01-26T14:16:34.369Z,22.93
2023-01-26T14:19:07.801Z,22.20
2023-01-26T14:21:47.555Z,23.33
2023-01-26T14:24:17.213Z,24.60
2023-01-26T14:26:45.785Z,24.50
2023-01-26T14:29:20.156Z,23.57
2023-01-26T14:31:49.368Z,25.07
2023-01-26T14:34:22.706Z,24.47
2023-01-26T14:37:05.514Z,25.37
2023-01-26T14:39:35.121Z,24.33
2023-01-26T14:42:04.265Z,23.80
2023-01-26T14:44:32.548Z,23.90
2023-01-26T14:47:06.118Z,24.23
2023-01-26T14:49:44.832Z,26.43
2023-01-26T14:52:23.985Z,25.33
2023-01-26T14:54:55.561Z,24.03
2023-01-26T14:57:26.509Z,24.23
2023-01-26T14:59:57.980Z,24.97
2023-01-26T15:02:28.437Z,26.07
2023-01-26T15:05:01.121Z,25.43
2023-01-26T15:07:37.799Z,26.43
2023-01-26T15:10:28.289Z,25.93
2023-01-26T15:13:01.337Z,25.27
2023-01-26T15:15:31.453Z,26.00
2023-01-26T15:18:05.227Z,28.77
2023-01-26T15:20:41.484Z,28.90
2023-01-26T15:23:27.226Z,27.83
2023-01-26T15:26:04.614Z,25.77
2023-01-26T15:28:34.715Z,26.43
2023-01-26T15:31:03.253Z,25.23
2023-01-26T15:33:50.463Z,25.73
2023-01-26T15:36:32.649Z,27.43
2023-01-26T15:39:11.945Z,26.57
2023-01-26T15:41:42.169Z,28.70
2023-01-26T15:44:16.532Z,29.90
2023-01-26T15:46:44.958Z,29.60
2023-01-26T15:49:13.130Z,29.40
2023-01-26T15:51:41.441Z,30.73
2023-01-26T15:54:12.284Z,29.47
2023-01-26T15:56:41.782Z,27.77
2023-01-26T15:59:09.899Z,29.97
2023-01-26T16:01:38.031Z,29.63
2023-01-26T16:04:06.379Z,29.90
2023-01-26T16:06:35.995Z,30.57
2023-01-26T16:09:04.259Z,29.13
2023-01-26T16:11:36.272Z,30.13
2023-01-26T16:14:07.894Z,30.37
2023-01-26T16:16:36.099Z,30.90
2023-01-26T16:19:04.363Z,28.60
2023-01-26T16:21:35.529Z,29.73
2023-01-26T16:24:04.483Z,30.30
2023-01-26T16:26:33.163Z,29.20
2023-01-26T16:29:01.320Z,30.13
2023-01-26T16:31:33.268Z,29.90
2023-01-26T16:34:02.184Z,30.47
2023-01-26T16:36:30.362Z,30.40
2023-01-26T16:38:58.497Z,27.83
2023-01-26T16:41:28.341Z,28.93
2023-01-26T16:43:58.060Z,29.83
2023-01-26T16:46:26.597Z,31.40
2023-01-26T16:48:56.430Z,32.63
2023-01-26T16:51:27.749Z,33.33
2023-01-26T16:53:57.078Z,33.53
2023-01-26T16:56:26.413Z,32.73
2023-01-26T16:58:54.712Z,34.50
2023-01-26T17:01:25.407Z,33.13
2023-01-26T17:03:56.206Z,33.40
2023-01-26T17:06:24.989Z,33.73
2023-01-26T17:08:53.193Z,34.97
2023-01-26T17:11:24.374Z,33.73
2023-01-26T17:13:53.666Z,33.70
2023-01-26T17:16:25.307Z,32.80
2023-01-26T17:18:55.120Z,32.27
2023-01-26T17:21:24.173Z,32.37
2023-01-26T17:23:53.200Z,33.53
2023-01-26T17:26:22.371Z,32.50
2023-01-26T17:28:54.456Z,35.20
2023-01-26T17:31:24.109Z,35.00
2023-01-26T17:33:53.048Z,33.80
2023-01-26T17:36:22.585Z,35.07
2023-01-26T17:38:51.006Z,32.80
2023-01-26T17:41:19.183Z,34.17
2023-01-26T17:43:47.839Z,33.90
2023-01-26T17:46:17.611Z,33.90
2023-01-26T17:48:46.704Z,34.70
2023-01-26T17:51:16.773Z,34.53
2023-01-26T17:53:49.621Z,35.97
2023-01-26T17:56:19.338Z,35.97
2023-01-26T17:58:49.850Z,38.10
2023-01-26T18:01:18.408Z,36.63
2023-01-26T18:03:46.817Z,38.90
2023-01-26T18:06:15.632Z,38.70
2023-01-26T18:08:43.904Z,39.87
2023-01-26T18:11:15.288Z,38.70
2023-01-26T18:13:43.959Z,37.30
2023-01-26T18:16:16.192Z,37.83
2023-01-26T18:18:44.891Z,40.53
2023-01-26T18:21:16.649Z,40.20
2023-01-26T18:23:46.207Z,41.53
2023-01-26T18:26:16.991Z,41.03
2023-01-26T18:28:46.024Z,42.93
2023-01-26T18:31:16.362Z,41.80
2023-01-26T18:33:44.772Z,44.30
2023-01-26T18:36:15.523Z,46.10
2023-01-26T18:38:45.280Z,44.33
2023-01-26T18:41:16.406Z,41.63
2023-01-26T18:43:46.988Z,42.10
2023-01-26T18:46:15.732Z,41.87
2023-01-26T18:48:44.206Z,39.17
2023-01-26T18:51:12.697Z,40.07
2023-01-26T18:53:41.085Z,40.37
2023-01-26T18:56:11.190Z,39.50
2023-01-26T18:58:41.297Z,40.63
2023-01-26T19:01:13.774Z,40.60
2023-01-26T19:03:47.343Z,40.30
2023-01-26T19:06:20.031Z,39.23
2023-01-26T19:08:55.510Z,39.17
2023-01-26T19:11:23.700Z,41.87
2023-01-26T19:13:53.178Z,38.97
2023-01-26T19:16:21.312Z,40.07
2023-01-26T19:18:50.059Z,40.13
2023-01-26T19:21:21.768Z,41.40
2023-01-26T19:23:50.314Z,43.23
2023-01-26T19:26:20.940Z,44.47
2023-01-26T19:28:51.035Z,45.47
2023-01-26T19:31:21.231Z,45.77
2023-01-26T19:33:52.820Z,44.40
2023-01-26T19:36:21.552Z,45.53
2023-01-26T19:38:49.611Z,45.50
2023-01-26T19:41:18.845Z,41.60
2023-01-26T19:43:47.004Z,44.47
2023-01-26T19:46:16.524Z,42.50
2023-01-26T19:48:46.296Z,41.73
2023-01-26T19:51:16.825Z,39.90
2023-01-26T19:53:46.426Z,41.30
2023-01-26T19:56:16.462Z,40.40
2023-01-26T19:58:45.133Z,41.40
2023-01-26T20:01:13.804Z,41.60
2023-01-26T20:03:41.969Z,40.83
2023-01-26T20:06:17.276Z,40.77
2023-01-26T20:08:45.629Z,42.70
2023-01-26T20:11:14.225Z,43.47
2023-01-26T20:13:42.343Z,42.57
2023-01-26T20:16:11.709Z,43.03
2023-01-26T20:18:40.006Z,43.17
2023-01-26T20:21:08.331Z,44.43
2023-01-26T20:23:43.359Z,42.03
2023-01-26T20:26:17.912Z,42.60
2023-01-26T20:28:46.758Z,43.27
2023-01-26T20:31:18.211Z,41.50
2023-01-26T20:33:49.076Z,41.87
2023-01-26T20:36:19.144Z,43.00
2023-01-26T20:38:49.846Z,42.53
2023-01-26T20:41:19.944Z,44.13
2023-01-26T20:44:03.519Z,45.53
2023-01-26T20:46:34.210Z,45.80
2023-01-26T20:49:09.674Z,46.37
2023-01-26T20:51:42.697Z,48.53
2023-01-26T20:54:19.325Z,47.17
2023-01-26T20:56:49.952Z,46.97
2023-01-26T20:59:19.194Z,48.43
2023-01-26T21:01:47.347Z,47.70
2023-01-26T21:04:15.458Z,49.53
2023-01-26T21:06:43.647Z,47.13
2023-01-26T21:09:13.215Z,46.57
2023-01-26T21:11:41.592Z,46.83
2023-01-26T21:14:13.459Z,48.93
2023-01-26T21:16:41.769Z,48.23
2023-01-26T21:19:09.920Z,48.70
2023-01-26T21:21:38.028Z,50.27
2023-01-26T21:24:06.666Z,51.37
2023-01-26T21:26:36.106Z,50.23
2023-01-26T21:29:05.530Z,64.37
2023-01-26T21:31:35.277Z,49.57
2023-01-26T21:34:03.425Z,50.40
2023-01-26T21:36:32.910Z,50.20
2023-01-26T21:39:02.314Z,52.57
2023-01-26T21:41:50.108Z,51.80
2023-01-26T21:44:22.002Z,52.77
2023-01-26T21:46:52.039Z,52.47
2023-01-26T21:49:20.600Z,53.67
2023-01-26T21:52:06.509Z,52.97
2023-01-26T21:54:34.818Z,52.93
2023-01-26T21:57:04.080Z,56.63
2023-01-26T21:59:32.621Z,54.83
2023-01-26T22:02:00.804Z,54.57
2023-01-26T22:04:30.676Z,53.33
2023-01-26T22:06:59.842Z,51.87
2023-01-26T22:09:28.458Z,53.30
2023-01-26T22:11:56.642Z,53.93
2023-01-26T22:14:26.247Z,53.07
2023-01-26T22:16:55.773Z,53.83
2023-01-26T22:19:23.901Z,55.17
2023-01-26T22:21:51.953Z,57.20
2023-01-26T22:24:20.340Z,55.93
2023-01-26T22:26:48.933Z,56.37
2023-01-26T22:29:17.035Z,57.00
2023-01-26T22:31:45.743Z,56.00
2023-01-26T22:34:15.208Z,55.77
2023-01-26T22:36:43.470Z,56.63
2023-01-26T22:39:12.350Z,54.60
2023-01-26T22:41:40.685Z,57.00
2023-01-26T22:44:09.206Z,56.80
2023-01-26T22:46:38.066Z,57.10
2023-01-26T22:49:06.115Z,57.00
2023-01-26T22:51:37.522Z,57.60
2023-01-26T22:54:06.584Z,56.13
2023-01-26T22:56:35.190Z,56.27
2023-01-26T22:59:03.308Z,56.30
2023-01-26T23:01:33.894Z,54.17
2023-01-26T23:04:02.836Z,58.40
2023-01-26T23:06:31.326Z,57.47
2023-01-26T23:09:04.656Z,57.43
2023-01-26T23:11:32.897Z,56.10
2023-01-26T23:14:01.601Z,57.27
2023-01-26T23:16:30.351Z,56.67
2023-01-26T23:18:59.796Z,58.63
2023-01-26T23:21:29.596Z,60.80
2023-01-26T23:23:58.002Z,60.67
2023-01-26T23:26:27.743Z,62.83
2023-01-26T23:28:55.876Z,62.30
2023-01-26T23:31:24.206Z,62.20
2023-01-26T23:33:52.520Z,62.70
2023-01-26T23:36:21.053Z,60.03
2023-01-26T23:38:49.126Z,63.27
2023-01-26T23:41:17.749Z,61.10
2023-01-26T23:43:47.354Z,62.47
2023-01-26T23:46:15.619Z,60.90
2023-01-26T23:48:43.721Z,60.67
2023-01-26T23:51:12.914Z,57.93
2023-01-26T23:53:41.348Z,55.60
2023-01-26T23:56:11.044Z,55.63
2023-01-26T23:58:39.373Z,56.90
